createdAt,value
2018-09-18T00:00:31.466Z,16.87
2018-09-18T00:03:00.188Z,16.84
2018-09-18T00:05:28.898Z,16.82
2018-09-18T00:07:57.590Z,16.78
2018-09-18T00:10:26.277Z,16.75
2018-09-18T00:12:55.049Z,14.09
2018-09-18T00:15:23.673Z,16.68
2018-09-18T00:17:52.342Z,16.69
2018-09-18T00:20:21.038Z,16.62
2018-09-18T00:22:49.799Z,16.60
2018-09-18T00:25:18.463Z,16.60
2018-09-18T00:27:47.182Z,16.59
2018-09-18T00:30:15.989Z,16.57
2018-09-18T00:32:44.625Z,16.54
2018-09-18T00:35:13.350Z,16.53
2018-09-18T00:37:41.967Z,16.52
2018-09-18T00:40:10.592Z,16.54
2018-09-18T00:42:39.285Z,16.54
2018-09-18T00:45:08.004Z,16.57
2018-09-18T00:47:36.700Z,16.62
2018-09-18T00:50:05.610Z,16.61
2018-09-18T00:52:34.371Z,16.54
2018-09-18T00:55:03.021Z,16.52
2018-09-18T00:57:31.771Z,16.48
2018-09-18T01:00:00.385Z,16.46
2018-09-18T01:02:29.436Z,16.41
2018-09-18T01:04:58.208Z,16.39
2018-09-18T01:07:26.953Z,16.35
2018-09-18T01:09:55.606Z,16.30
2018-09-18T01:12:24.385Z,16.30
2018-09-18T01:14:53.149Z,16.30
2018-09-18T01:17:21.843Z,16.37
2018-09-18T01:19:50.569Z,16.40
2018-09-18T01:22:19.263Z,16.38
2018-09-18T01:24:47.952Z,16.38
2018-09-18T01:27:16.626Z,16.34
2018-09-18T01:29:45.373Z,16.28
2018-09-18T01:32:14.029Z,16.26
2018-09-18T01:34:42.732Z,16.23
2018-09-18T01:37:11.411Z,16.20
2018-09-18T01:39:40.117Z,16.16
2018-09-18T01:42:08.810Z,16.11
2018-09-18T01:44:37.482Z,16.05
2018-09-18T01:47:06.176Z,16.02
2018-09-18T01:49:34.807Z,16.00
2018-09-18T01:52:03.460Z,15.96
2018-09-18T01:54:32.167Z,15.91
2018-09-18T01:57:00.886Z,15.87
2018-09-18T01:59:29.575Z,15.83
2018-09-18T02:01:58.207Z,15.81
2018-09-18T02:04:26.848Z,15.74
2018-09-18T02:06:55.475Z,15.69
2018-09-18T02:09:24.091Z,15.65
2018-09-18T02:11:52.707Z,15.63
2018-09-18T02:14:21.332Z,15.39
2018-09-18T02:16:49.971Z,15.58
2018-09-18T02:19:18.611Z,15.57
2018-09-18T02:21:47.232Z,15.53
2018-09-18T02:24:15.902Z,15.50
2018-09-18T02:26:44.584Z,15.46
2018-09-18T02:29:13.221Z,15.45
2018-09-18T02:31:41.860Z,15.39
2018-09-18T02:34:10.508Z,15.36
2018-09-18T02:36:39.156Z,15.32
2018-09-18T02:39:11.034Z,15.30
2018-09-18T02:41:39.716Z,15.30
2018-09-18T02:44:08.424Z,15.29
2018-09-18T02:46:37.121Z,15.26
2018-09-18T02:49:05.792Z,15.22
2018-09-18T02:51:34.447Z,15.22
2018-09-18T02:54:03.082Z,15.17
2018-09-18T02:56:31.706Z,15.19
2018-09-18T02:59:00.349Z,15.15
2018-09-18T03:01:29.022Z,15.10
2018-09-18T03:03:57.691Z,15.06
2018-09-18T03:06:26.351Z,15.05
2018-09-18T03:08:55.012Z,14.99
2018-09-18T03:11:23.668Z,15.07
2018-09-18T03:13:52.336Z,15.04
2018-09-18T03:16:20.984Z,14.97
2018-09-18T03:18:49.618Z,14.91
2018-09-18T03:21:18.305Z,14.86
2018-09-18T03:23:46.967Z,14.85
2018-09-18T03:26:15.630Z,14.85
2018-09-18T03:28:44.261Z,14.84
2018-09-18T03:31:12.947Z,14.87
2018-09-18T03:33:41.610Z,14.79
2018-09-18T03:36:10.242Z,14.74
2018-09-18T03:38:38.888Z,14.72
2018-09-18T03:41:07.696Z,14.73
2018-09-18T03:43:36.339Z,14.69
2018-09-18T03:46:04.934Z,14.70
2018-09-18T03:48:33.873Z,14.71
2018-09-18T03:51:02.544Z,14.71
2018-09-18T03:53:31.247Z,14.72
2018-09-18T03:55:59.872Z,14.72
2018-09-18T03:58:28.511Z,14.71
2018-09-18T04:00:57.148Z,14.72
2018-09-18T04:03:25.797Z,14.68
2018-09-18T04:05:54.462Z,14.63
2018-09-18T04:08:23.072Z,14.62
2018-09-18T04:10:51.707Z,14.59
2018-09-18T04:13:20.398Z,13.41
2018-09-18T04:15:49.503Z,14.60
2018-09-18T04:18:20.728Z,14.60
2018-09-18T04:20:49.371Z,14.62
2018-09-18T04:23:18.041Z,14.57
2018-09-18T04:25:46.646Z,14.54
2018-09-18T04:28:16.388Z,14.60
2018-09-18T04:30:45.112Z,14.66
2018-09-18T04:33:14.127Z,14.59
2018-09-18T04:35:42.828Z,14.58
2018-09-18T04:38:11.493Z,14.59
2018-09-18T04:40:40.174Z,14.68
2018-09-18T04:43:08.863Z,14.79
2018-09-18T04:45:37.807Z,14.89
2018-09-18T04:48:06.829Z,14.95
2018-09-18T04:50:36.045Z,15.14
2018-09-18T04:53:04.710Z,15.42
2018-09-18T04:55:33.350Z,15.60
2018-09-18T04:58:01.995Z,15.59
2018-09-18T05:00:30.639Z,15.74
2018-09-18T05:02:59.323Z,15.95
2018-09-18T05:05:28.011Z,16.61
2018-09-18T05:07:56.723Z,16.87
2018-09-18T05:10:25.368Z,17.12
2018-09-18T05:12:53.987Z,17.09
2018-09-18T05:15:22.640Z,17.49
2018-09-18T05:17:51.265Z,17.47
2018-09-18T05:20:19.947Z,17.14
2018-09-18T05:22:48.623Z,16.96
2018-09-18T05:25:17.269Z,17.04
2018-09-18T05:27:45.908Z,17.23
2018-09-18T05:30:14.544Z,17.59
2018-09-18T05:32:43.218Z,17.95
2018-09-18T05:35:11.888Z,18.33
2018-09-18T05:37:40.527Z,18.57
2018-09-18T05:40:09.177Z,18.61
2018-09-18T05:42:37.832Z,18.71
2018-09-18T05:45:06.604Z,19.03
2018-09-18T05:47:35.217Z,19.52
2018-09-18T05:50:04.194Z,19.48
2018-09-18T05:52:32.826Z,19.58
2018-09-18T05:55:01.504Z,19.94
2018-09-18T05:57:30.155Z,20.05
2018-09-18T05:59:58.919Z,20.22
2018-09-18T06:02:27.619Z,20.12
2018-09-18T06:04:56.335Z,20.63
2018-09-18T06:07:24.987Z,20.76
2018-09-18T06:09:53.693Z,20.49
2018-09-18T06:12:22.424Z,20.82
2018-09-18T06:14:51.044Z,21.10
2018-09-18T06:17:19.690Z,21.23
2018-09-18T06:19:48.312Z,21.57
2018-09-18T06:22:16.964Z,21.79
2018-09-18T06:24:45.642Z,21.36
2018-09-18T06:27:14.287Z,20.96
2018-09-18T06:29:43.358Z,21.15
2018-09-18T06:32:11.973Z,22.04
2018-09-18T06:34:40.875Z,22.38
2018-09-18T06:37:09.937Z,22.64
2018-09-18T06:39:38.628Z,22.48
2018-09-18T06:42:07.444Z,22.17
2018-09-18T06:44:36.202Z,21.21
2018-09-18T06:47:05.135Z,21.89
2018-09-18T06:49:33.789Z,22.42
2018-09-18T06:52:03.309Z,22.29
2018-09-18T06:54:31.995Z,22.34
2018-09-18T06:57:00.807Z,22.58
2018-09-18T06:59:29.474Z,22.97
2018-09-18T07:01:58.131Z,23.50
2018-09-18T07:04:27.071Z,23.06
2018-09-18T07:06:55.843Z,23.80
2018-09-18T07:09:24.523Z,24.48
2018-09-18T07:11:53.152Z,25.15
2018-09-18T07:14:21.844Z,24.44
2018-09-18T07:16:50.694Z,24.28
2018-09-18T07:19:19.755Z,25.02
2018-09-18T07:21:48.404Z,25.33
2018-09-18T07:24:17.088Z,25.49
2018-09-18T07:26:45.836Z,25.25
2018-09-18T07:29:14.514Z,24.70
2018-09-18T07:31:43.166Z,23.90
2018-09-18T07:34:11.973Z,24.07
2018-09-18T07:36:40.646Z,24.16
2018-09-18T07:39:11.028Z,23.98
2018-09-18T07:41:39.647Z,24.36
2018-09-18T07:44:08.668Z,24.41
2018-09-18T07:46:37.294Z,25.42
2018-09-18T07:49:06.260Z,25.42
2018-09-18T07:51:35.847Z,25.78
2018-09-18T07:54:05.455Z,26.24
2018-09-18T07:56:34.114Z,25.84
2018-09-18T07:59:03.165Z,25.40
2018-09-18T08:01:33.309Z,25.37
2018-09-18T08:04:01.955Z,25.18
2018-09-18T08:06:30.644Z,25.14
2018-09-18T08:08:59.282Z,25.38
2018-09-18T08:11:27.947Z,25.53
2018-09-18T08:13:56.658Z,25.23
2018-09-18T08:16:25.366Z,25.63
2018-09-18T08:18:54.186Z,25.73
2018-09-18T08:21:22.747Z,25.47
2018-09-18T08:23:51.435Z,25.77
2018-09-18T08:26:20.079Z,25.65
2018-09-18T08:28:48.764Z,26.50
2018-09-18T08:31:17.397Z,26.54
2018-09-18T08:33:46.046Z,26.60
2018-09-18T08:36:14.699Z,26.84
2018-09-18T08:38:43.403Z,26.67
2018-09-18T08:41:12.111Z,25.90
2018-09-18T08:43:40.795Z,25.79
2018-09-18T08:46:09.714Z,26.30
2018-09-18T08:48:42.439Z,26.29
2018-09-18T08:51:11.276Z,26.55
2018-09-18T08:53:40.029Z,26.90
2018-09-18T08:56:08.691Z,27.08
2018-09-18T08:58:37.411Z,27.51
2018-09-18T09:01:06.176Z,27.29
2018-09-18T09:03:34.807Z,26.71
2018-09-18T09:06:03.559Z,26.73
2018-09-18T09:08:32.607Z,27.12
2018-09-18T09:11:01.908Z,26.83
2018-09-18T09:13:30.588Z,26.82
2018-09-18T09:15:59.267Z,26.79
2018-09-18T09:18:28.005Z,27.21
2018-09-18T09:20:56.758Z,27.62
2018-09-18T09:23:25.428Z,28.59
2018-09-18T09:25:54.101Z,28.67
2018-09-18T09:28:22.793Z,27.85
2018-09-18T09:30:51.440Z,28.20
2018-09-18T09:33:20.433Z,28.68
2018-09-18T09:35:49.155Z,28.10
2018-09-18T09:38:17.846Z,28.48
2018-09-18T09:40:46.596Z,27.77
2018-09-18T09:43:15.291Z,27.38
2018-09-18T09:45:44.157Z,27.45
2018-09-18T09:48:12.904Z,27.83
2018-09-18T09:50:41.596Z,28.38
2018-09-18T09:53:10.290Z,26.18
2018-09-18T09:55:39.003Z,28.17
2018-09-18T09:58:07.739Z,28.41
2018-09-18T10:00:45.751Z,29.10
2018-09-18T10:03:15.059Z,28.34
2018-09-18T10:05:43.763Z,28.51
2018-09-18T10:08:12.542Z,28.83
2018-09-18T10:10:41.399Z,29.66
2018-09-18T10:13:10.001Z,29.62
2018-09-18T10:15:38.699Z,29.35
2018-09-18T10:18:07.353Z,28.90
2018-09-18T10:20:36.029Z,28.98
2018-09-18T10:23:04.863Z,29.25
2018-09-18T10:25:33.551Z,29.34
2018-09-18T10:28:02.280Z,29.04
2018-09-18T10:30:31.354Z,28.59
2018-09-18T10:33:00.049Z,28.37
2018-09-18T10:35:28.699Z,28.82
2018-09-18T10:37:57.402Z,29.01
2018-09-18T10:40:26.136Z,29.29
2018-09-18T10:42:54.827Z,29.46
2018-09-18T10:45:23.611Z,29.22
2018-09-18T10:47:52.738Z,29.42
2018-09-18T10:50:21.439Z,29.47
2018-09-18T10:52:50.140Z,29.39
2018-09-18T10:55:18.834Z,29.06
2018-09-18T10:57:47.585Z,29.70
2018-09-18T11:00:16.251Z,29.95
2018-09-18T11:02:45.190Z,30.25
2018-09-18T11:05:13.906Z,30.76
2018-09-18T11:07:42.688Z,29.80
2018-09-18T11:10:11.452Z,29.62
2018-09-18T11:12:40.070Z,30.65
2018-09-18T11:15:08.748Z,31.48
2018-09-18T11:17:37.423Z,30.26
2018-09-18T11:20:06.279Z,29.42
2018-09-18T11:22:35.336Z,29.45
2018-09-18T11:25:04.081Z,29.48
2018-09-18T11:27:32.807Z,30.45
2018-09-18T11:30:01.775Z,31.57
2018-09-18T11:32:30.490Z,31.95
2018-09-18T11:34:59.178Z,31.66
2018-09-18T11:37:27.869Z,30.83
2018-09-18T11:39:56.523Z,30.46
2018-09-18T11:42:25.207Z,30.04
2018-09-18T11:44:53.891Z,30.70
2018-09-18T11:47:22.572Z,31.11
2018-09-18T11:49:51.246Z,30.71
2018-09-18T11:52:19.920Z,31.31
2018-09-18T11:54:48.602Z,32.01
2018-09-18T11:57:17.332Z,31.77
2018-09-18T11:59:46.013Z,30.24
2018-09-18T12:02:14.733Z,29.86
2018-09-18T12:04:43.538Z,28.86
2018-09-18T12:10:32.640Z,28.45
2018-09-18T12:13:01.579Z,27.34
2018-09-18T12:15:30.240Z,27.42
2018-09-18T12:17:58.887Z,27.93
2018-09-18T12:20:27.543Z,27.86
2018-09-18T12:22:56.222Z,26.96
2018-09-18T12:25:24.900Z,26.32
2018-09-18T12:27:53.679Z,26.33
2018-09-18T12:30:22.432Z,26.99
2018-09-18T12:32:51.088Z,28.11
2018-09-18T12:35:19.777Z,28.78
2018-09-18T12:37:49.342Z,28.84
2018-09-18T12:40:18.013Z,28.73
2018-09-18T12:42:46.682Z,29.11
2018-09-18T12:45:15.354Z,29.38
2018-09-18T12:47:44.006Z,28.87
2018-09-18T12:50:12.956Z,29.43
2018-09-18T12:52:41.385Z,28.72
2018-09-18T12:55:10.009Z,28.43
2018-09-18T12:57:38.848Z,28.08
2018-09-18T13:00:09.110Z,28.21
2018-09-18T13:02:37.811Z,28.18
2018-09-18T13:05:06.537Z,27.63
2018-09-18T13:07:35.194Z,27.48
2018-09-18T13:10:04.011Z,27.25
2018-09-18T13:12:32.609Z,27.30
2018-09-18T13:15:01.271Z,27.53
2018-09-18T13:17:29.948Z,27.64
2018-09-18T13:19:58.638Z,27.48
2018-09-18T13:22:27.283Z,27.24
2018-09-18T13:24:55.978Z,27.06
2018-09-18T13:27:24.596Z,27.00
2018-09-18T13:29:53.248Z,27.12
2018-09-18T13:32:21.899Z,27.05
2018-09-18T13:34:50.549Z,27.04
2018-09-18T13:37:19.277Z,27.11
2018-09-18T13:39:47.957Z,27.09
2018-09-18T13:42:16.707Z,27.30
2018-09-18T13:44:45.367Z,27.26
2018-09-18T13:47:14.018Z,26.97
2018-09-18T13:49:42.716Z,27.04
2018-09-18T13:52:11.407Z,27.02
2018-09-18T13:54:40.104Z,26.97
2018-09-18T13:57:08.831Z,26.90
2018-09-18T13:59:37.585Z,26.99
2018-09-18T14:02:06.281Z,26.89
2018-09-18T14:04:34.984Z,26.64
2018-09-18T14:07:03.704Z,26.54
2018-09-18T14:09:32.472Z,26.60
2018-09-18T14:12:01.139Z,26.49
2018-09-18T14:14:29.774Z,26.42
2018-09-18T14:16:58.436Z,26.45
2018-09-18T14:19:27.117Z,26.67
2018-09-18T14:21:55.787Z,26.55
2018-09-18T14:24:24.483Z,26.47
2018-09-18T14:26:53.146Z,26.61
2018-09-18T14:29:21.811Z,26.69
2018-09-18T14:31:50.543Z,26.59
2018-09-18T14:34:19.231Z,26.49
2018-09-18T14:36:47.907Z,26.40
2018-09-18T14:39:16.608Z,26.25
2018-09-18T14:41:45.248Z,26.11
2018-09-18T14:44:13.883Z,26.13
2018-09-18T14:46:42.611Z,25.91
2018-09-18T14:49:11.294Z,25.83
2018-09-18T14:51:39.958Z,25.93
2018-09-18T14:54:08.774Z,25.86
2018-09-18T14:56:37.448Z,25.79
2018-09-18T14:59:06.248Z,25.88
2018-09-18T15:01:34.911Z,25.77
2018-09-18T15:04:03.590Z,25.71
2018-09-18T15:06:32.222Z,25.75
2018-09-18T15:09:00.875Z,25.82
2018-09-18T15:11:29.571Z,25.81
2018-09-18T15:13:58.193Z,25.73
2018-09-18T15:16:26.887Z,25.70
2018-09-18T15:18:55.578Z,25.72
2018-09-18T15:21:24.311Z,25.69
2018-09-18T15:23:52.975Z,25.64
2018-09-18T15:26:21.680Z,25.71
2018-09-18T15:28:50.367Z,25.70
2018-09-18T15:31:19.087Z,25.69
2018-09-18T15:33:47.928Z,25.75
2018-09-18T15:36:16.755Z,25.65
2018-09-18T15:38:45.482Z,25.46
2018-09-18T15:41:14.181Z,25.40
2018-09-18T15:43:42.862Z,25.34
2018-09-18T15:46:11.613Z,25.27
2018-09-18T15:48:40.307Z,25.23
2018-09-18T15:51:09.027Z,25.15
2018-09-18T15:53:37.674Z,25.11
2018-09-18T15:56:06.436Z,24.99
2018-09-18T15:58:35.063Z,24.92
2018-09-18T16:01:03.793Z,24.89
2018-09-18T16:03:33.228Z,24.84
2018-09-18T16:06:02.337Z,24.86
2018-09-18T16:12:18.187Z,24.69
2018-09-18T16:14:47.929Z,24.60
2018-09-18T16:17:27.451Z,24.50
2018-09-18T16:19:56.924Z,24.39
2018-09-18T16:22:26.168Z,24.31
2018-09-18T16:24:58.020Z,24.31
2018-09-18T16:27:27.193Z,24.25
2018-09-18T16:30:15.013Z,24.10
2018-09-18T16:32:46.633Z,24.01
2018-09-18T16:48:59.579Z,23.69
2018-09-18T16:51:37.148Z,23.61
2018-09-18T16:54:06.527Z,23.45
2018-09-18T16:56:35.584Z,23.33
2018-09-18T16:59:04.891Z,23.26
2018-09-18T17:01:37.104Z,23.15
2018-09-18T17:04:06.457Z,23.14
2018-09-18T17:06:35.293Z,23.07
2018-09-18T17:09:05.634Z,22.92
2018-09-18T17:11:35.686Z,22.80
2018-09-18T17:14:04.718Z,22.71
2018-09-18T17:16:33.792Z,22.63
2018-09-18T17:19:02.987Z,22.55
2018-09-18T17:21:32.035Z,22.48
2018-09-18T17:24:01.123Z,22.38
2018-09-18T17:26:30.159Z,22.28
2018-09-18T17:28:59.725Z,22.21
2018-09-18T17:31:29.796Z,22.17
2018-09-18T17:33:58.682Z,22.10
2018-09-18T17:36:28.035Z,22.07
2018-09-18T17:38:57.684Z,22.00
2018-09-18T17:41:27.018Z,21.94
2018-09-18T17:43:56.950Z,21.93
2018-09-18T17:46:26.635Z,21.83
2018-09-18T17:48:55.512Z,21.78
2018-09-18T17:51:24.420Z,21.72
2018-09-18T17:53:53.497Z,21.64
2018-09-18T17:56:23.125Z,21.57
2018-09-18T17:58:52.317Z,21.54
2018-09-18T18:01:21.552Z,21.50
2018-09-18T18:03:50.444Z,21.46
2018-09-18T18:06:19.642Z,21.38
2018-09-18T18:08:48.651Z,21.28
2018-09-18T18:11:18.362Z,21.15
2018-09-18T18:13:47.169Z,21.07
2018-09-18T18:16:16.198Z,21.01
2018-09-18T18:18:45.167Z,20.94
2018-09-18T18:21:13.995Z,19.79
2018-09-18T18:23:42.974Z,20.84
2018-09-18T18:26:12.599Z,20.79
2018-09-18T18:28:41.602Z,20.71
2018-09-18T18:31:10.837Z,20.62
2018-09-18T18:33:39.638Z,20.55
2018-09-18T18:36:08.621Z,20.49
2018-09-18T18:38:37.625Z,20.42
2018-09-18T18:41:06.557Z,20.34
2018-09-18T18:43:35.543Z,20.29
2018-09-18T18:46:05.372Z,20.24
2018-09-18T18:48:34.308Z,20.22
2018-09-18T18:51:03.180Z,20.20
2018-09-18T18:53:32.013Z,20.16
2018-09-18T18:56:00.711Z,20.18
2018-09-18T18:58:29.419Z,20.20
2018-09-18T19:00:58.061Z,20.17
2018-09-18T19:03:26.775Z,20.15
2018-09-18T19:05:55.434Z,20.12
2018-09-18T19:08:24.067Z,20.07
2018-09-18T19:10:52.747Z,20.03
2018-09-18T19:13:21.436Z,19.95
2018-09-18T19:15:50.105Z,19.91
2018-09-18T19:18:18.782Z,19.88
2018-09-18T19:20:47.455Z,19.84
2018-09-18T19:23:16.158Z,19.77
2018-09-18T19:25:44.826Z,19.74
2018-09-18T19:28:13.508Z,19.67
2018-09-18T19:30:42.145Z,19.58
2018-09-18T19:33:10.922Z,19.58
2018-09-18T19:35:39.537Z,19.56
2018-09-18T19:38:08.184Z,19.52
2018-09-18T19:40:36.849Z,19.42
2018-09-18T19:43:05.527Z,19.39
2018-09-18T19:45:34.184Z,19.40
2018-09-18T19:48:02.945Z,19.41
2018-09-18T19:50:31.590Z,19.39
2018-09-18T19:53:00.222Z,19.37
2018-09-18T19:55:28.941Z,19.32
2018-09-18T19:57:57.627Z,19.26
2018-09-18T20:00:26.352Z,19.22
2018-09-18T20:02:55.133Z,19.16
2018-09-18T20:05:23.809Z,19.15
2018-09-18T20:07:52.533Z,19.12
2018-09-18T20:10:21.295Z,19.04
2018-09-18T20:12:50.139Z,18.94
2018-09-18T20:15:18.831Z,18.82
2018-09-18T20:17:47.441Z,18.73
2018-09-18T20:20:16.159Z,18.67
2018-09-18T20:22:44.860Z,18.63
2018-09-18T20:25:13.544Z,18.55
2018-09-18T20:27:42.472Z,18.48
2018-09-18T20:30:12.569Z,18.41
2018-09-18T20:32:41.310Z,18.31
2018-09-18T20:35:09.947Z,18.20
2018-09-18T20:37:38.759Z,18.13
2018-09-18T20:40:07.412Z,18.09
2018-09-18T20:42:36.597Z,18.02
2018-09-18T20:45:05.388Z,17.96
2018-09-18T20:47:34.208Z,17.90
2018-09-18T20:50:03.495Z,17.87
2018-09-18T20:52:32.291Z,17.82
2018-09-18T20:55:01.006Z,17.79
2018-09-18T20:57:29.669Z,17.74
2018-09-18T20:59:58.367Z,17.74
2018-09-18T21:02:27.041Z,17.69
2018-09-18T21:04:55.749Z,17.66
2018-09-18T21:07:24.414Z,17.56
2018-09-18T21:09:53.072Z,17.48
2018-09-18T21:12:21.724Z,17.44
2018-09-18T21:14:50.387Z,17.37
2018-09-18T21:17:33.772Z,17.34
2018-09-18T21:20:02.417Z,17.38
2018-09-18T21:22:31.042Z,17.38
2018-09-18T21:25:12.024Z,17.35
2018-09-18T21:27:41.111Z,17.29
2018-09-18T21:30:13.729Z,17.26
2018-09-18T21:32:42.392Z,17.22
2018-09-18T21:35:11.114Z,17.19
2018-09-18T21:37:40.088Z,17.17
2018-09-18T21:40:08.815Z,17.14
2018-09-18T21:42:37.483Z,17.11
2018-09-18T21:45:06.170Z,17.07
2018-09-18T21:47:34.906Z,17.04
2018-09-18T21:50:03.610Z,17.02
2018-09-18T21:52:32.273Z,17.01
2018-09-18T21:55:00.940Z,17.00
2018-09-18T21:57:29.596Z,16.97
2018-09-18T21:59:58.282Z,16.92
2018-09-18T22:02:26.950Z,16.89
2018-09-18T22:04:55.601Z,16.83
2018-09-18T22:07:24.283Z,16.75
2018-09-18T22:09:52.938Z,16.69
2018-09-18T22:12:21.653Z,16.68
2018-09-18T22:14:50.304Z,16.68
2018-09-18T22:17:18.988Z,16.66
2018-09-18T22:19:47.660Z,16.63
2018-09-18T22:22:16.335Z,16.56
2018-09-18T22:24:45.081Z,16.54
2018-09-18T22:27:13.725Z,16.50
2018-09-18T22:29:42.421Z,16.48
2018-09-18T22:32:11.122Z,16.45
2018-09-18T22:34:39.820Z,16.41
2018-09-18T22:37:08.503Z,16.37
2018-09-18T22:39:37.213Z,16.35
2018-09-18T22:42:05.877Z,16.30
2018-09-18T22:44:34.534Z,16.28
2018-09-18T22:47:03.223Z,16.25
2018-09-18T22:49:31.863Z,16.25
2018-09-18T22:52:00.555Z,16.22
2018-09-18T22:54:29.266Z,16.24
2018-09-18T22:56:57.875Z,16.23
2018-09-18T22:59:26.584Z,15.97
2018-09-18T23:01:55.283Z,16.17
2018-09-18T23:04:33.055Z,16.17
2018-09-18T23:07:18.488Z,16.13
2018-09-18T23:10:05.349Z,16.10
2018-09-18T23:12:57.355Z,16.03
2018-09-18T23:17:10.403Z,15.95
2018-09-18T23:19:45.955Z,15.87
2018-09-18T23:22:14.640Z,15.90
2018-09-18T23:24:43.287Z,15.91
2018-09-18T23:27:11.939Z,15.91
2018-09-18T23:29:40.665Z,15.91
2018-09-18T23:32:09.313Z,15.89
2018-09-18T23:34:37.959Z,15.88
2018-09-18T23:52:03.466Z,15.66
2018-09-18T23:54:32.116Z,15.66
2018-09-18T23:57:00.750Z,15.61
2018-09-18T23:59:29.425Z,15.61
